createdAt,value
2019-06-26T00:02:56.816Z,6.20
2019-06-26T00:05:52.346Z,5.87
2019-06-26T00:08:43.970Z,6.50
2019-06-26T00:11:40.336Z,6.47
2019-06-26T00:14:39.134Z,6.08
2019-06-26T00:17:33.743Z,6.60
2019-06-26T00:20:29.531Z,6.30
2019-06-26T00:23:21.150Z,6.83
2019-06-26T00:26:36.293Z,6.78
2019-06-26T00:29:39.608Z,7.47
2019-06-26T00:32:43.952Z,6.62
2019-06-26T00:35:45.545Z,6.62
2019-06-26T00:38:42.102Z,6.58
2019-06-26T00:41:29.151Z,6.87
2019-06-26T00:44:21.356Z,6.70
2019-06-26T00:47:24.500Z,6.28
2019-06-26T00:50:27.290Z,6.37
2019-06-26T00:53:19.574Z,6.50
2019-06-26T00:56:22.238Z,6.72
2019-06-26T00:59:15.828Z,6.75
2019-06-26T01:02:10.388Z,6.58
2019-06-26T01:05:07.376Z,6.62
2019-06-26T01:08:16.655Z,6.45
2019-06-26T01:11:40.704Z,6.60
2019-06-26T01:14:32.280Z,6.90
2019-06-26T01:17:26.971Z,6.20
2019-06-26T01:20:19.073Z,6.60
2019-06-26T01:23:15.958Z,6.50
2019-06-26T01:26:25.346Z,6.50
2019-06-26T01:29:20.271Z,6.90
2019-06-26T01:32:21.401Z,6.70
2019-06-26T01:35:13.681Z,6.72
2019-06-26T01:38:13.072Z,6.80
2019-06-26T01:41:24.350Z,6.42
2019-06-26T01:44:20.687Z,6.62
2019-06-26T01:47:10.546Z,6.92
2019-06-26T01:50:06.345Z,6.83
2019-06-26T01:53:04.126Z,6.30
2019-06-26T01:55:59.589Z,7.22
2019-06-26T01:59:08.330Z,6.60
2019-06-26T02:02:14.337Z,7.28
2019-06-26T02:05:13.168Z,6.17
2019-06-26T02:08:25.007Z,6.62
2019-06-26T02:11:29.574Z,6.60
2019-06-26T02:14:30.435Z,6.80
2019-06-26T02:17:29.989Z,7.10
2019-06-26T02:20:28.863Z,7.00
2019-06-26T02:23:30.956Z,6.85
2019-06-26T02:26:35.563Z,7.00
2019-06-26T02:29:38.058Z,7.22
2019-06-26T02:32:39.309Z,6.50
2019-06-26T02:35:30.988Z,6.70
2019-06-26T02:38:21.186Z,6.92
2019-06-26T02:41:19.462Z,7.00
2019-06-26T02:44:19.483Z,7.12
2019-06-26T02:47:21.057Z,7.05
2019-06-26T02:50:34.247Z,7.03
2019-06-26T02:53:29.513Z,7.05
2019-06-26T02:56:31.648Z,6.65
2019-06-26T02:59:25.063Z,7.00
2019-06-26T03:02:21.661Z,7.92
2019-06-26T03:05:20.145Z,7.45
2019-06-26T03:08:29.948Z,7.30
2019-06-26T03:11:22.994Z,7.65
2019-06-26T03:14:21.857Z,7.80
2019-06-26T03:17:14.408Z,7.08
2019-06-26T03:20:29.540Z,8.10
2019-06-26T03:23:39.808Z,7.95
2019-06-26T03:26:33.906Z,7.50
2019-06-26T03:29:35.020Z,7.72
2019-06-26T03:32:38.286Z,7.75
2019-06-26T03:35:40.627Z,8.00
2019-06-26T03:38:34.864Z,7.95
2019-06-26T03:41:26.343Z,7.67
2019-06-26T03:44:24.292Z,8.23
2019-06-26T03:47:37.780Z,8.18
2019-06-26T03:50:43.012Z,8.28
2019-06-26T03:53:48.968Z,7.47
2019-06-26T03:56:44.787Z,8.00
2019-06-26T03:59:54.454Z,8.25
2019-06-26T04:02:40.235Z,7.90
2019-06-26T04:05:57.477Z,7.42
2019-06-26T04:09:01.457Z,8.38
2019-06-26T04:12:06.692Z,7.95
2019-06-26T04:15:14.498Z,7.62
2019-06-26T04:18:13.072Z,8.38
2019-06-26T04:21:17.706Z,7.60
2019-06-26T04:24:16.895Z,8.05
2019-06-26T04:27:05.182Z,8.30
2019-06-26T04:29:54.701Z,8.35
2019-06-26T04:32:46.887Z,7.87
2019-06-26T04:35:49.545Z,7.60
2019-06-26T04:39:23.122Z,8.18
2019-06-26T04:42:19.700Z,8.08
2019-06-26T04:45:13.145Z,8.10
2019-06-26T04:48:11.659Z,8.05
2019-06-26T04:51:10.202Z,7.97
2019-06-26T04:54:04.647Z,8.43
2019-06-26T04:56:58.224Z,7.97
2019-06-26T04:59:54.445Z,8.33
2019-06-26T05:02:59.427Z,8.70
2019-06-26T05:05:53.309Z,8.25
2019-06-26T05:08:48.993Z,8.53
2019-06-26T05:11:53.898Z,8.23
2019-06-26T05:15:09.311Z,8.38
2019-06-26T05:18:32.692Z,7.92
2019-06-26T05:21:26.148Z,7.62
2019-06-26T05:24:21.650Z,8.18
2019-06-26T05:27:12.748Z,7.40
2019-06-26T05:30:20.318Z,7.70
2019-06-26T05:33:25.259Z,7.53
2019-06-26T05:36:19.472Z,7.47
2019-06-26T05:39:29.388Z,7.58
2019-06-26T05:42:34.545Z,7.45
2019-06-26T05:45:37.613Z,8.48
2019-06-26T05:48:44.090Z,7.50
2019-06-26T05:51:51.407Z,7.83
2019-06-26T05:54:47.407Z,7.85
2019-06-26T06:00:48.065Z,8.30
2019-06-26T06:03:49.871Z,8.05
2019-06-26T06:06:49.557Z,7.80
2019-06-26T06:09:39.647Z,9.10
2019-06-26T06:12:34.006Z,8.68
2019-06-26T06:15:28.741Z,9.55
2019-06-26T06:18:28.140Z,10.82
2019-06-26T06:21:52.250Z,9.60
2019-06-26T06:24:46.544Z,12.73
2019-06-26T06:27:39.272Z,9.30
2019-06-26T06:30:34.039Z,11.63
2019-06-26T06:33:37.287Z,9.68
2019-06-26T06:36:35.525Z,9.58
2019-06-26T06:39:26.575Z,9.55
2019-06-26T06:42:43.981Z,9.20
2019-06-26T06:45:33.456Z,13.80
2019-06-26T06:48:38.798Z,8.53
2019-06-26T06:51:43.371Z,9.50
2019-06-26T06:54:46.167Z,8.70
2019-06-26T06:57:37.914Z,8.40
2019-06-26T07:00:29.270Z,8.55
2019-06-26T07:03:30.132Z,8.88
2019-06-26T07:06:38.886Z,8.60
2019-06-26T07:09:40.654Z,8.40
2019-06-26T07:12:42.261Z,8.28
2019-06-26T07:19:11.026Z,8.23
2019-06-26T07:22:16.325Z,8.23
2019-06-26T07:25:16.444Z,8.65
2019-06-26T07:28:07.593Z,8.75
2019-06-26T07:30:57.604Z,8.80
2019-06-26T07:33:55.394Z,8.03
2019-06-26T07:36:49.396Z,9.48
2019-06-26T07:39:46.503Z,8.55
2019-06-26T07:42:36.792Z,8.18
2019-06-26T07:45:27.464Z,8.75
2019-06-26T07:48:19.964Z,8.40
2019-06-26T07:51:07.872Z,8.18
2019-06-26T07:54:05.479Z,9.43
2019-06-26T07:57:00.813Z,8.75
2019-06-26T07:59:59.700Z,8.65
2019-06-26T08:03:04.077Z,9.48
2019-06-26T08:05:56.462Z,9.53
2019-06-26T08:08:47.908Z,9.65
2019-06-26T08:11:37.625Z,9.73
2019-06-26T08:14:27.734Z,9.58
2019-06-26T08:17:23.944Z,9.55
2019-06-26T08:20:30.673Z,10.15
2019-06-26T08:23:33.835Z,10.15
2019-06-26T08:26:25.185Z,10.03
2019-06-26T08:29:19.113Z,10.50
2019-06-26T08:32:27.709Z,9.35
2019-06-26T08:35:34.621Z,9.90
2019-06-26T08:38:35.533Z,9.53
2019-06-26T08:41:30.945Z,9.63
2019-06-26T08:44:30.270Z,11.00
2019-06-26T08:47:24.432Z,9.93
2019-06-26T08:50:16.800Z,10.55
2019-06-26T08:53:09.783Z,9.78
2019-06-26T08:56:09.925Z,10.50
2019-06-26T08:59:08.075Z,9.90
2019-06-26T09:02:07.112Z,10.82
2019-06-26T09:05:02.524Z,10.55
2019-06-26T09:07:53.459Z,11.33
2019-06-26T09:10:56.658Z,10.28
2019-06-26T09:13:48.048Z,11.05
2019-06-26T09:16:45.811Z,10.98
2019-06-26T09:19:39.379Z,10.63
2019-06-26T09:22:29.700Z,10.75
2019-06-26T09:25:27.938Z,11.70
2019-06-26T09:28:35.879Z,11.25
2019-06-26T09:31:30.968Z,10.85
2019-06-26T09:34:36.912Z,10.90
2019-06-26T09:37:39.408Z,10.70
2019-06-26T09:40:44.418Z,12.10
2019-06-26T09:43:36.882Z,10.88
2019-06-26T09:46:45.237Z,11.33
2019-06-26T09:49:34.904Z,11.22
2019-06-26T09:52:28.115Z,10.28
2019-06-26T09:55:35.569Z,11.20
2019-06-26T09:58:32.570Z,10.72
2019-06-26T10:01:40.610Z,9.10
2019-06-26T10:04:40.747Z,9.43
2019-06-26T10:07:51.458Z,9.58
2019-06-26T10:10:46.924Z,9.28
2019-06-26T10:13:52.738Z,9.10
2019-06-26T10:16:50.402Z,9.23
2019-06-26T10:19:45.257Z,9.08
2019-06-26T10:22:47.708Z,9.13
2019-06-26T10:25:45.823Z,9.18
2019-06-26T10:28:54.389Z,8.68
2019-06-26T10:31:55.652Z,8.08
2019-06-26T10:35:09.335Z,8.70
2019-06-26T10:38:06.278Z,8.30
2019-06-26T10:41:04.911Z,8.05
2019-06-26T10:44:04.547Z,8.00
2019-06-26T10:47:01.652Z,7.42
2019-06-26T10:50:07.770Z,7.62
2019-06-26T10:52:59.634Z,5.60
2019-06-26T10:55:56.760Z,5.10
2019-06-26T10:58:54.452Z,5.85
2019-06-26T11:01:55.333Z,5.55
2019-06-26T11:04:49.866Z,5.80
2019-06-26T11:07:55.618Z,6.62
2019-06-26T11:10:58.220Z,7.12
2019-06-26T11:14:11.078Z,6.72
2019-06-26T11:17:12.389Z,7.05
2019-06-26T11:20:04.109Z,6.30
2019-06-26T11:22:55.519Z,5.72
2019-06-26T11:25:48.267Z,6.08
2019-06-26T11:28:45.605Z,7.15
2019-06-26T11:31:36.940Z,6.72
2019-06-26T11:34:34.033Z,7.33
2019-06-26T11:37:25.853Z,6.55
2019-06-26T11:40:21.174Z,6.30
2019-06-26T11:43:14.182Z,5.90
2019-06-26T11:46:24.480Z,5.45
2019-06-26T11:49:26.466Z,5.25
2019-06-26T11:52:44.274Z,6.40
2019-06-26T11:55:55.096Z,6.12
2019-06-26T11:58:49.199Z,6.58
2019-06-26T12:02:02.858Z,6.95
2019-06-26T12:05:11.604Z,7.45
2019-06-26T12:08:18.304Z,6.92
2019-06-26T12:11:18.465Z,7.28
2019-06-26T12:14:28.504Z,7.12
2019-06-26T12:17:30.102Z,7.08
2019-06-26T12:20:27.154Z,7.53
2019-06-26T12:23:30.262Z,6.78
2019-06-26T12:26:30.449Z,6.58
2019-06-26T12:29:28.243Z,6.30
2019-06-26T12:32:23.539Z,6.42
2019-06-26T12:35:19.306Z,6.00
2019-06-26T12:38:36.100Z,6.40
2019-06-26T12:41:37.439Z,6.53
2019-06-26T12:44:39.396Z,6.40
2019-06-26T12:47:39.615Z,6.35
2019-06-26T12:50:36.032Z,6.28
2019-06-26T12:53:50.232Z,5.65
2019-06-26T12:56:48.462Z,6.12
2019-06-26T12:59:57.343Z,6.25
2019-06-26T13:02:31.556Z,6.40
2019-06-26T13:05:35.704Z,6.17
2019-06-26T13:08:33.678Z,7.17
2019-06-26T13:11:35.439Z,6.70
2019-06-26T13:14:45.587Z,6.40
2019-06-26T13:17:45.543Z,6.87
2019-06-26T13:20:59.468Z,6.47
2019-06-26T13:24:07.162Z,6.45
2019-06-26T13:26:56.455Z,6.75
2019-06-26T13:29:58.565Z,6.65
2019-06-26T13:32:54.500Z,6.53
2019-06-26T13:35:52.511Z,6.42
2019-06-26T13:38:46.169Z,6.55
2019-06-26T13:41:47.603Z,6.00
2019-06-26T13:44:43.980Z,6.20
2019-06-26T13:47:39.594Z,6.08
2019-06-26T13:50:43.257Z,5.33
2019-06-26T13:53:36.051Z,5.62
2019-06-26T13:56:37.183Z,5.25
2019-06-26T13:59:30.970Z,4.75
2019-06-26T14:02:41.060Z,4.80
2019-06-26T14:05:30.219Z,4.50
2019-06-26T14:08:26.686Z,4.67
2019-06-26T14:11:34.597Z,4.20
2019-06-26T14:14:20.507Z,4.47
2019-06-26T14:17:16.668Z,4.47
2019-06-26T14:20:20.803Z,4.53
2019-06-26T14:23:13.750Z,5.40
2019-06-26T14:26:17.257Z,4.60
2019-06-26T14:29:21.256Z,5.12
2019-06-26T14:32:31.298Z,4.45
2019-06-26T14:35:37.059Z,4.55
2019-06-26T14:38:24.735Z,4.15
2019-06-26T14:41:26.866Z,4.58
2019-06-26T14:44:33.430Z,4.37
2019-06-26T14:47:41.084Z,4.40
2019-06-26T14:50:44.914Z,5.10
2019-06-26T14:53:46.484Z,4.95
2019-06-26T14:56:42.379Z,5.22
2019-06-26T14:59:46.693Z,4.90
2019-06-26T15:02:47.468Z,5.95
2019-06-26T15:05:54.249Z,4.87
2019-06-26T15:08:49.927Z,5.45
2019-06-26T15:11:41.760Z,4.78
2019-06-26T15:14:36.809Z,5.25
2019-06-26T15:17:29.779Z,4.80
2019-06-26T15:20:24.694Z,6.87
2019-06-26T15:23:16.273Z,4.72
2019-06-26T15:26:12.633Z,4.92
2019-06-26T15:29:18.747Z,5.22
2019-06-26T15:32:09.613Z,5.28
2019-06-26T15:35:08.096Z,5.15
2019-06-26T15:38:06.880Z,5.10
2019-06-26T15:41:11.119Z,4.80
2019-06-26T15:44:11.969Z,4.42
2019-06-26T15:47:14.633Z,5.45
2019-06-26T15:50:00.290Z,4.97
2019-06-26T15:53:05.157Z,4.78
2019-06-26T15:56:03.133Z,4.85
2019-06-26T15:58:57.499Z,5.15
2019-06-26T16:01:50.087Z,5.22
2019-06-26T16:05:02.762Z,4.95
2019-06-26T16:08:18.763Z,4.97
2019-06-26T16:11:17.007Z,4.87
2019-06-26T16:14:19.470Z,5.00
2019-06-26T16:17:51.078Z,5.15
2019-06-26T16:24:04.205Z,4.87
2019-06-26T16:27:14.719Z,5.00
2019-06-26T16:30:09.428Z,5.80
2019-06-26T16:33:09.126Z,6.30
2019-06-26T16:36:11.588Z,4.53
2019-06-26T16:39:10.584Z,5.80
2019-06-26T16:42:12.674Z,6.90
2019-06-26T16:45:09.518Z,4.28
2019-06-26T16:47:57.501Z,4.40
2019-06-26T16:50:49.327Z,4.20
2019-06-26T16:53:39.945Z,4.15
2019-06-26T16:56:40.143Z,3.67
2019-06-26T16:59:47.524Z,3.98
2019-06-26T17:02:35.918Z,3.95
2019-06-26T17:05:35.022Z,4.08
2019-06-26T17:08:34.712Z,3.92
2019-06-26T17:11:57.312Z,3.87
2019-06-26T17:15:08.708Z,3.92
2019-06-26T17:18:10.668Z,3.83
2019-06-26T17:21:16.189Z,3.67
2019-06-26T17:24:02.970Z,3.72
2019-06-26T17:27:06.914Z,3.90
2019-06-26T17:30:02.089Z,3.20
2019-06-26T17:33:14.871Z,3.35
2019-06-26T17:36:07.913Z,5.15
2019-06-26T17:39:08.003Z,4.17
2019-06-26T17:42:02.222Z,3.83
2019-06-26T17:44:53.646Z,3.45
2019-06-26T17:47:48.043Z,3.42
2019-06-26T17:50:40.356Z,3.47
2019-06-26T17:53:42.158Z,3.12
2019-06-26T17:56:39.077Z,3.22
2019-06-26T17:59:51.932Z,3.77
2019-06-26T18:02:45.297Z,3.45
2019-06-26T18:05:38.584Z,3.37
2019-06-26T18:08:46.230Z,3.60
2019-06-26T18:12:01.097Z,3.95
2019-06-26T18:15:05.352Z,3.80
2019-06-26T18:18:08.541Z,3.85
2019-06-26T18:21:00.736Z,3.60
2019-06-26T18:24:00.384Z,3.62
2019-06-26T18:26:56.819Z,3.77
2019-06-26T18:30:01.122Z,3.65
2019-06-26T18:32:54.364Z,3.85
2019-06-26T18:35:47.675Z,3.55
2019-06-26T18:38:40.975Z,3.40
2019-06-26T18:41:38.889Z,3.80
2019-06-26T18:44:25.431Z,3.60
2019-06-26T18:47:26.250Z,4.20
2019-06-26T18:50:22.008Z,3.55
2019-06-26T18:53:22.759Z,3.50
2019-06-26T18:56:16.517Z,3.90
2019-06-26T18:59:17.238Z,4.30
2019-06-26T19:02:14.578Z,4.65
2019-06-26T19:07:43.404Z,4.90
2019-06-26T19:10:35.956Z,4.30
2019-06-26T19:13:35.329Z,4.55
2019-06-26T19:16:31.515Z,4.20
2019-06-26T19:19:22.717Z,4.45
2019-06-26T19:22:21.980Z,4.22
2019-06-26T19:25:23.289Z,4.17
2019-06-26T19:28:22.942Z,5.03
2019-06-26T19:31:07.566Z,5.80
2019-06-26T19:34:10.809Z,5.30
2019-06-26T19:37:12.764Z,5.08
2019-06-26T19:40:16.211Z,4.42
2019-06-26T19:43:16.367Z,4.62
2019-06-26T19:46:03.871Z,4.83
2019-06-26T19:48:57.703Z,5.60
2019-06-26T19:51:59.588Z,5.60
2019-06-26T19:54:45.411Z,6.55
2019-06-26T19:57:38.550Z,6.20
2019-06-26T20:00:33.046Z,6.45
2019-06-26T20:03:28.587Z,6.35
2019-06-26T20:06:20.181Z,6.10
2019-06-26T20:09:26.875Z,6.00
2019-06-26T20:12:19.477Z,5.60
2019-06-26T20:15:14.300Z,6.50
2019-06-26T20:18:08.369Z,6.08
2019-06-26T20:21:03.664Z,6.92
2019-06-26T20:24:06.107Z,5.97
2019-06-26T20:26:58.563Z,6.72
2019-06-26T20:30:11.934Z,6.62
2019-06-26T20:33:10.466Z,5.92
2019-06-26T20:36:09.060Z,6.65
2019-06-26T20:39:03.170Z,6.17
2019-06-26T20:41:59.014Z,5.75
2019-06-26T20:44:56.359Z,5.97
2019-06-26T20:47:55.328Z,6.03
2019-06-26T20:50:51.944Z,5.95
2019-06-26T20:53:45.087Z,5.42
2019-06-26T20:56:47.991Z,4.33
2019-06-26T20:59:41.688Z,4.40
2019-06-26T21:02:40.530Z,3.33
2019-06-26T21:06:04.422Z,3.52
2019-06-26T21:08:49.922Z,3.20
2019-06-26T21:12:00.146Z,3.15
2019-06-26T21:15:03.914Z,2.67
2019-06-26T21:18:22.520Z,2.72
2019-06-26T21:21:19.898Z,2.70
2019-06-26T21:24:25.460Z,2.80
2019-06-26T21:27:27.148Z,2.67
2019-06-26T21:30:33.290Z,2.98
2019-06-26T21:33:26.600Z,2.70
2019-06-26T21:36:37.610Z,3.00
2019-06-26T21:39:37.376Z,3.60
2019-06-26T21:42:43.975Z,3.00
2019-06-26T21:45:54.508Z,3.10
2019-06-26T21:48:50.803Z,2.73
2019-06-26T21:52:02.650Z,3.40
2019-06-26T21:55:02.920Z,5.00
2019-06-26T21:57:57.166Z,4.37
2019-06-26T22:00:52.692Z,4.07
2019-06-26T22:03:48.410Z,4.33
2019-06-26T22:06:38.522Z,4.77
2019-06-26T22:09:39.069Z,4.40
2019-06-26T22:12:31.599Z,4.53
2019-06-26T22:15:45.556Z,5.43
2019-06-26T22:18:54.388Z,5.93
2019-06-26T22:21:56.536Z,4.93
2019-06-26T22:24:55.480Z,5.40
2019-06-26T22:27:56.824Z,5.13
2019-06-26T22:30:47.754Z,5.60
2019-06-26T22:33:42.137Z,4.73
2019-06-26T22:36:51.068Z,4.73
2019-06-26T22:39:50.847Z,4.67
2019-06-26T22:42:53.068Z,5.67
2019-06-26T22:45:55.479Z,4.80
2019-06-26T22:49:05.260Z,5.20
2019-06-26T22:52:04.846Z,5.00
2019-06-26T22:55:06.042Z,4.90
2019-06-26T22:58:09.648Z,5.00
2019-06-26T23:01:23.974Z,4.00
2019-06-26T23:04:12.018Z,5.27
2019-06-26T23:07:17.879Z,4.57
2019-06-26T23:10:12.235Z,4.43
2019-06-26T23:13:03.776Z,4.40
2019-06-26T23:16:03.765Z,4.67
2019-06-26T23:19:21.926Z,4.67
2019-06-26T23:22:24.608Z,4.00
2019-06-26T23:25:17.769Z,4.40
2019-06-26T23:28:15.581Z,4.20
2019-06-26T23:31:20.557Z,4.17
2019-06-26T23:34:23.702Z,4.57
2019-06-26T23:37:28.991Z,4.33
2019-06-26T23:40:27.042Z,4.60
2019-06-26T23:43:18.356Z,5.30
2019-06-26T23:46:09.027Z,4.70
2019-06-26T23:49:18.781Z,5.23
2019-06-26T23:52:16.757Z,5.97
2019-06-26T23:55:06.878Z,6.23
2019-06-26T23:58:11.208Z,5.90
